Murree Weather



Murree's Current Weather

Temprature 6.67o clear sky

clear sky

Rain: 0 %

Min Temprature6.67o
Max Temprature6.67o
Humidity90
Wind Speed0.89 m/h
Sun Rise07:10:33
Sun Set17:22:40
Current Time: 18-Jan-2021 05:00:13
Lat/Lon: 33.9073, 73.393




Murree's Geo Location



Murree's Weather Forecast

Time Overall Temp Min Temp Max Temp Humidity Wind Speed Rain
18-Jan-2021 (Mon)
08:00:00 few clouds 3.810 0.810 3.810 87 1.84 m/h 0 %
11:00:00 few clouds 7.250 7.250 7.410 62 1.08 m/h 0 %
14:00:00 clear sky 8.820 8.820 8.970 52 2.16 m/h 0 %
17:00:00 clear sky 4.760 4.740 4.760 71 1.36 m/h 0 %
20:00:00 clear sky 2.030 2.030 2.030 83 2.08 m/h 0 %
23:00:00 clear sky 1.380 1.380 1.380 82 2.51 m/h 0 %
19-Jan-2021 (Tue)
02:00:00 few clouds 0.710 0.710 0.710 82 2.9 m/h 0 %
05:00:00 few clouds 0.100 0.100 0.100 81 3.14 m/h 0 %
08:00:00 clear sky 0.590 0.590 0.590 80 3.07 m/h 0 %
11:00:00 clear sky 8.410 8.410 8.410 48 0.86 m/h 0 %
14:00:00 clear sky 10.250 10.250 10.250 42 1.72 m/h 0 %
17:00:00 clear sky 5.620 5.620 5.620 63 1.16 m/h 0 %
20:00:00 clear sky 2.790 2.790 2.790 73 2.21 m/h 0 %
23:00:00 clear sky 1.830 1.830 1.830 73 2.99 m/h 0 %
20-Jan-2021 (Wed)
02:00:00 clear sky 1.020 1.020 1.020 74 3.24 m/h 0 %
05:00:00 clear sky 0.330 0.330 0.330 77 3.65 m/h 0 %
08:00:00 clear sky 0.800 0.800 0.800 77 3.79 m/h 0 %
11:00:00 clear sky 8.800 8.800 8.800 46 2.01 m/h 0 %
14:00:00 clear sky 11.000 11.000 11.000 39 1.34 m/h 0 %
17:00:00 few clouds 6.320 6.320 6.320 57 1.26 m/h 0 %
20:00:00 scattered clouds 3.130 3.130 3.130 67 3.12 m/h 0 %
23:00:00 broken clouds 1.840 1.840 1.840 73 3.95 m/h 0 %
21-Jan-2021 (Thu)
02:00:00 broken clouds 0.610 0.610 0.610 77 4.12 m/h 0 %
05:00:00 scattered clouds -0.190 -0.190 -0.190 76 4.17 m/h 0 %
08:00:00 broken clouds 0.340 0.340 0.340 74 4.14 m/h 0 %
11:00:00 overcast clouds 8.320 8.320 8.320 46 2.71 m/h 0 %
14:00:00 overcast clouds 10.830 10.830 10.830 38 0.12 m/h 0 %
17:00:00 overcast clouds 5.700 5.700 5.700 59 0.22 m/h 0 %
20:00:00 overcast clouds 3.230 3.230 3.230 63 2.31 m/h 0 %
23:00:00 overcast clouds 2.960 2.960 2.960 61 2.23 m/h 0 %
22-Jan-2021 (Fri)
02:00:00 overcast clouds 2.090 2.090 2.090 65 2.86 m/h 0 %
05:00:00 overcast clouds 1.650 1.650 1.650 68 2.91 m/h 0 %
08:00:00 overcast clouds 2.500 2.500 2.500 66 2.59 m/h 0 %
11:00:00 overcast clouds 8.910 8.910 8.910 45 1.4 m/h 0 %
14:00:00 overcast clouds 10.070 10.070 10.070 43 2.66 m/h 0 %
17:00:00 overcast clouds 6.690 6.690 6.690 59 1.8 m/h 0 %
20:00:00 overcast clouds 3.830 3.830 3.830 70 1.46 m/h 0 %
23:00:00 overcast clouds 3.930 3.930 3.930 70 2.65 m/h 0 %
23-Jan-2021 (Sat)
02:00:00 overcast clouds 3.490 3.490 3.490 73 4.15 m/h 0 %
05:00:00 overcast clouds 2.260 2.260 2.260 83 4.2 m/h 0 %

Famous Cities (60)